createdAt,value
2023-01-31T00:00:08.989Z,76.99
2023-01-31T00:00:19.149Z,76.99
2023-01-31T00:00:29.228Z,77.09
2023-01-31T00:00:39.734Z,77.09
2023-01-31T00:00:49.523Z,77.09
2023-01-31T00:00:59.592Z,77.09
2023-01-31T00:01:09.664Z,77.09
2023-01-31T00:01:19.835Z,77.20
2023-01-31T00:01:29.805Z,77.20
2023-01-31T00:01:40.119Z,77.20
2023-01-31T00:01:50.073Z,77.20
2023-01-31T00:02:00.265Z,77.20
2023-01-31T00:02:10.251Z,77.20
2023-01-31T00:02:20.389Z,77.30
2023-01-31T00:02:30.487Z,77.30
2023-01-31T00:02:40.593Z,77.30
2023-01-31T00:02:50.653Z,77.30
2023-01-31T00:03:00.741Z,77.30
2023-01-31T00:03:10.894Z,77.30
2023-01-31T00:03:20.999Z,77.20
2023-01-31T00:03:31.128Z,77.09
2023-01-31T00:03:41.223Z,76.99
2023-01-31T00:03:51.427Z,76.99
2023-01-31T00:04:01.506Z,76.99
2023-01-31T00:04:11.570Z,77.09
2023-01-31T00:04:21.639Z,77.09
2023-01-31T00:04:31.724Z,77.09
2023-01-31T00:04:41.854Z,77.20
2023-01-31T00:04:51.945Z,77.20
2023-01-31T00:05:02.086Z,77.30
2023-01-31T00:05:12.151Z,77.30
2023-01-31T00:05:22.583Z,77.30
2023-01-31T00:05:32.385Z,77.30
2023-01-31T00:05:42.504Z,77.40
2023-01-31T00:05:52.580Z,77.40
2023-01-31T00:06:02.655Z,77.40
2023-01-31T00:06:12.723Z,77.40
2023-01-31T00:06:22.798Z,77.51
2023-01-31T00:06:32.877Z,77.51
2023-01-31T00:06:42.935Z,77.40
2023-01-31T00:06:53.096Z,77.40
2023-01-31T00:07:03.152Z,77.40
2023-01-31T00:07:13.227Z,77.40
2023-01-31T00:07:23.301Z,77.40
2023-01-31T00:07:33.363Z,77.40
2023-01-31T00:07:43.431Z,77.51
2023-01-31T00:07:53.501Z,77.51
2023-01-31T00:08:03.564Z,77.51
2023-01-31T00:08:13.633Z,77.51
2023-01-31T00:08:23.714Z,77.61
2023-01-31T00:08:33.795Z,77.51
2023-01-31T00:08:44.410Z,77.51
2023-01-31T00:08:53.991Z,77.51
2023-01-31T00:09:04.062Z,77.51
2023-01-31T00:09:17.104Z,77.51
2023-01-31T00:09:27.179Z,77.51
2023-01-31T00:09:37.364Z,77.61
2023-01-31T00:09:47.443Z,77.61
2023-01-31T00:09:57.507Z,77.51
2023-01-31T00:10:07.577Z,77.51
2023-01-31T00:10:17.644Z,77.61
2023-01-31T00:10:27.730Z,77.61
2023-01-31T00:10:38.489Z,77.51
2023-01-31T00:10:47.882Z,77.51
2023-01-31T00:10:57.949Z,77.51
2023-01-31T00:11:08.027Z,77.51
2023-01-31T00:11:18.092Z,77.61
2023-01-31T00:11:28.164Z,77.61
2023-01-31T00:11:38.558Z,77.61
2023-01-31T00:11:48.325Z,77.61
2023-01-31T00:11:58.421Z,77.61
2023-01-31T00:12:08.512Z,77.61
2023-01-31T00:12:18.572Z,77.61
2023-01-31T00:12:28.682Z,77.61
2023-01-31T00:12:39.123Z,77.61
2023-01-31T00:12:48.844Z,77.61
2023-01-31T00:12:58.963Z,77.61
2023-01-31T00:13:09.031Z,77.61
2023-01-31T00:13:19.113Z,77.61
2023-01-31T00:13:29.201Z,77.72
2023-01-31T00:13:39.263Z,77.72
2023-01-31T00:13:49.378Z,77.72
2023-01-31T00:13:59.452Z,77.82
2023-01-31T00:14:09.549Z,77.82
2023-01-31T00:14:19.631Z,77.82
2023-01-31T00:14:29.711Z,77.82
2023-01-31T00:14:39.791Z,77.82
2023-01-31T00:14:49.922Z,77.82
2023-01-31T00:15:00.035Z,77.82
2023-01-31T00:15:10.138Z,77.72
2023-01-31T00:15:23.816Z,77.72
2023-01-31T00:15:33.891Z,77.72
2023-01-31T00:15:43.999Z,77.72
2023-01-31T00:15:54.167Z,77.72
2023-01-31T00:16:04.355Z,77.82
2023-01-31T00:16:14.424Z,77.72
2023-01-31T00:16:24.527Z,77.72
2023-01-31T00:16:35.050Z,77.72
2023-01-31T00:16:44.681Z,77.61
2023-01-31T00:16:54.768Z,77.72
2023-01-31T00:17:04.844Z,77.72
2023-01-31T00:17:14.913Z,77.82
2023-01-31T00:17:24.972Z,77.82
2023-01-31T00:17:34.987Z,77.82
2023-01-31T00:17:45.070Z,77.82
2023-01-31T00:17:55.141Z,77.82
2023-01-31T00:18:05.216Z,77.82
2023-01-31T00:18:15.270Z,77.92
2023-01-31T00:18:25.359Z,77.92
2023-01-31T00:18:35.860Z,77.92
2023-01-31T00:18:45.636Z,77.92
2023-01-31T00:18:55.718Z,77.92
2023-01-31T00:19:05.739Z,77.92
2023-01-31T00:19:15.797Z,77.92
2023-01-31T00:19:25.857Z,77.92
2023-01-31T00:19:36.138Z,77.92
2023-01-31T00:19:46.021Z,77.92
2023-01-31T00:19:56.092Z,77.92
2023-01-31T00:20:06.202Z,77.92
2023-01-31T00:20:16.261Z,78.03
2023-01-31T00:20:26.369Z,78.03
2023-01-31T00:20:36.447Z,77.92
2023-01-31T00:20:46.545Z,77.92
2023-01-31T00:20:56.613Z,77.82
2023-01-31T00:21:06.692Z,77.72
2023-01-31T00:21:16.760Z,77.72
2023-01-31T00:21:26.819Z,77.72
2023-01-31T00:21:37.341Z,77.72
2023-01-31T00:21:46.927Z,77.72
2023-01-31T00:21:57.000Z,77.61
2023-01-31T00:22:07.069Z,77.61
2023-01-31T00:22:17.156Z,77.51
2023-01-31T00:22:27.218Z,77.61
2023-01-31T00:22:37.277Z,77.61
2023-01-31T00:22:47.350Z,77.61
2023-01-31T00:22:57.483Z,77.61
2023-01-31T00:23:07.549Z,77.61
2023-01-31T00:23:17.692Z,77.61
2023-01-31T00:23:27.699Z,77.51
2023-01-31T00:23:38.063Z,77.51
2023-01-31T00:23:47.949Z,77.51
2023-01-31T00:23:58.027Z,77.51
2023-01-31T00:24:08.108Z,77.61
2023-01-31T00:24:18.192Z,77.61
2023-01-31T00:24:28.262Z,77.61
2023-01-31T00:24:38.672Z,77.61
2023-01-31T00:24:48.402Z,77.61
2023-01-31T00:24:58.476Z,77.61
2023-01-31T00:25:08.544Z,77.61
2023-01-31T00:25:18.896Z,77.61
2023-01-31T00:25:28.729Z,77.61
2023-01-31T00:25:39.061Z,77.61
2023-01-31T00:25:48.960Z,77.61
2023-01-31T00:25:59.031Z,77.72
2023-01-31T00:26:09.143Z,77.72
2023-01-31T00:26:19.252Z,77.82
2023-01-31T00:26:29.358Z,77.82
2023-01-31T00:26:39.828Z,77.82
2023-01-31T00:26:49.612Z,77.82
2023-01-31T00:26:59.689Z,77.82
2023-01-31T00:27:09.782Z,77.82
2023-01-31T00:27:19.858Z,77.82
2023-01-31T00:27:29.940Z,77.72
2023-01-31T00:27:40.089Z,77.72
2023-01-31T00:27:50.173Z,77.72
2023-01-31T00:28:00.269Z,77.72
2023-01-31T00:28:10.384Z,77.72
2023-01-31T00:28:20.500Z,77.72
2023-01-31T00:28:30.634Z,77.72
2023-01-31T00:28:40.697Z,77.72
2023-01-31T00:28:50.769Z,77.72
2023-01-31T00:29:00.849Z,77.72
2023-01-31T00:29:10.941Z,77.72
2023-01-31T00:29:21.013Z,77.72
2023-01-31T00:29:31.129Z,77.72
2023-01-31T00:29:41.227Z,77.72
2023-01-31T00:29:51.319Z,77.82
2023-01-31T00:30:01.405Z,77.82
2023-01-31T00:30:11.458Z,77.82
2023-01-31T00:30:21.537Z,77.82
2023-01-31T00:30:31.607Z,77.82
2023-01-31T00:30:41.684Z,77.82
2023-01-31T00:30:51.788Z,77.82
2023-01-31T00:31:01.864Z,77.82
2023-01-31T00:31:12.005Z,77.72
2023-01-31T00:31:22.042Z,77.72
2023-01-31T00:31:32.230Z,77.72
2023-01-31T00:31:42.445Z,77.61
2023-01-31T00:31:52.473Z,77.61
2023-01-31T00:32:02.528Z,77.61
2023-01-31T00:32:12.465Z,77.61
2023-01-31T00:32:22.579Z,77.61
2023-01-31T00:32:32.611Z,77.61
2023-01-31T00:32:42.668Z,77.61
2023-01-31T00:32:52.737Z,77.72
2023-01-31T00:33:02.856Z,77.72
2023-01-31T00:33:12.949Z,77.72
2023-01-31T00:33:23.011Z,77.72
2023-01-31T00:33:33.121Z,77.72
2023-01-31T00:33:43.188Z,77.72
2023-01-31T00:33:53.297Z,77.72
2023-01-31T00:34:03.391Z,77.72
2023-01-31T00:34:13.451Z,77.72
2023-01-31T00:34:23.519Z,77.72
2023-01-31T00:34:33.607Z,77.72
2023-01-31T00:34:43.697Z,77.72
2023-01-31T00:34:53.778Z,77.61
2023-01-31T00:35:03.855Z,77.61
2023-01-31T00:35:13.930Z,77.61
2023-01-31T00:35:24.048Z,77.51
2023-01-31T00:35:34.577Z,77.54
2023-01-31T00:35:44.287Z,77.51
2023-01-31T00:35:54.365Z,77.61
2023-01-31T00:36:04.427Z,77.61
2023-01-31T00:36:14.505Z,77.61
2023-01-31T00:36:24.573Z,77.61
2023-01-31T00:36:34.948Z,77.72
2023-01-31T00:36:44.787Z,77.72
2023-01-31T00:36:54.830Z,77.72
2023-01-31T00:37:04.886Z,77.72
2023-01-31T00:37:14.959Z,77.72
2023-01-31T00:37:25.016Z,77.72
2023-01-31T00:37:35.096Z,77.72
2023-01-31T00:37:45.170Z,77.82
2023-01-31T00:37:55.238Z,77.82
2023-01-31T00:38:05.317Z,77.75
2023-01-31T00:38:15.398Z,77.75
2023-01-31T00:38:25.445Z,77.72
2023-01-31T00:38:36.179Z,77.75
2023-01-31T00:38:45.596Z,77.82
2023-01-31T00:38:55.774Z,77.75
2023-01-31T00:39:05.851Z,77.72
2023-01-31T00:39:15.979Z,77.75
2023-01-31T00:39:26.055Z,77.75
2023-01-31T00:39:36.392Z,77.75
2023-01-31T00:39:46.288Z,77.75
2023-01-31T00:39:56.426Z,77.75
2023-01-31T00:40:06.505Z,77.75
2023-01-31T00:40:16.576Z,77.64
2023-01-31T00:40:26.653Z,77.64
2023-01-31T00:40:37.241Z,77.64
2023-01-31T00:40:46.807Z,77.61
2023-01-31T00:40:56.897Z,77.64
2023-01-31T00:41:06.964Z,77.75
2023-01-31T00:41:17.034Z,77.75
2023-01-31T00:41:27.117Z,77.72
2023-01-31T00:41:37.521Z,77.61
2023-01-31T00:41:47.192Z,77.64
2023-01-31T00:41:57.249Z,77.64
2023-01-31T00:42:07.315Z,77.61
2023-01-31T00:42:17.327Z,77.64
2023-01-31T00:42:27.396Z,77.64
2023-01-31T00:42:38.020Z,77.64
2023-01-31T00:42:47.555Z,77.64
2023-01-31T00:42:57.627Z,77.64
2023-01-31T00:43:07.699Z,77.61
2023-01-31T00:43:17.757Z,77.64
2023-01-31T00:43:27.858Z,77.75
2023-01-31T00:43:38.615Z,77.75
2023-01-31T00:43:48.055Z,77.75
2023-01-31T00:43:58.146Z,77.75
2023-01-31T00:44:08.246Z,77.64
2023-01-31T00:44:18.319Z,77.64
2023-01-31T00:44:28.451Z,77.64
2023-01-31T00:44:38.521Z,77.61
2023-01-31T00:44:48.586Z,77.64
2023-01-31T00:44:58.665Z,77.51
2023-01-31T00:45:08.756Z,77.54
2023-01-31T00:45:19.084Z,77.51
2023-01-31T00:45:28.942Z,77.51
2023-01-31T00:45:39.021Z,77.51
2023-01-31T00:45:49.125Z,77.54
2023-01-31T00:45:59.190Z,77.61
2023-01-31T00:46:09.207Z,77.61
2023-01-31T00:46:19.383Z,77.61
2023-01-31T00:46:29.465Z,77.61
2023-01-31T00:46:39.593Z,77.61
2023-01-31T00:46:49.669Z,77.72
2023-01-31T00:46:59.795Z,77.61
2023-01-31T00:47:09.868Z,77.61
2023-01-31T00:47:19.943Z,77.61
2023-01-31T00:47:30.027Z,77.72
2023-01-31T00:47:40.154Z,77.72
2023-01-31T00:47:50.227Z,77.72
2023-01-31T00:48:00.302Z,77.72
2023-01-31T00:48:10.376Z,77.72
2023-01-31T00:48:20.452Z,77.72
2023-01-31T00:48:30.465Z,77.75
2023-01-31T00:48:40.548Z,77.72
2023-01-31T00:48:50.636Z,77.75
2023-01-31T00:49:00.707Z,77.72
2023-01-31T00:49:10.774Z,77.75
2023-01-31T00:49:20.845Z,77.72
2023-01-31T00:49:30.935Z,77.72
2023-01-31T00:49:41.006Z,77.75
2023-01-31T00:49:51.090Z,77.72
2023-01-31T00:50:01.167Z,77.72
2023-01-31T00:50:11.225Z,77.61
2023-01-31T00:50:21.335Z,77.61
2023-01-31T00:50:31.466Z,77.61
2023-01-31T00:50:41.615Z,77.61
2023-01-31T00:50:51.694Z,77.61
2023-01-31T00:51:01.766Z,77.61
2023-01-31T00:51:11.859Z,77.61
2023-01-31T00:51:21.929Z,77.61
2023-01-31T00:51:32.001Z,77.61
2023-01-31T00:51:42.081Z,77.61
2023-01-31T00:51:52.172Z,77.72
2023-01-31T00:52:02.241Z,77.72
2023-01-31T00:52:12.401Z,77.72
2023-01-31T00:52:22.474Z,77.72
2023-01-31T00:52:32.608Z,77.75
2023-01-31T00:52:42.594Z,77.82
2023-01-31T00:52:52.684Z,77.82
2023-01-31T00:53:02.743Z,77.82
2023-01-31T00:53:12.814Z,77.82
2023-01-31T00:53:22.887Z,77.82
2023-01-31T00:53:32.976Z,77.82
2023-01-31T00:53:43.097Z,77.82
2023-01-31T00:53:53.226Z,77.82
2023-01-31T00:54:03.273Z,77.82
2023-01-31T00:54:13.432Z,77.82
2023-01-31T00:54:23.512Z,77.82
2023-01-31T00:54:34.203Z,77.82
2023-01-31T00:54:43.595Z,77.82
2023-01-31T00:54:53.646Z,77.82
2023-01-31T00:55:03.715Z,77.92
2023-01-31T00:55:13.772Z,77.82
2023-01-31T00:55:23.846Z,77.92
2023-01-31T00:55:34.755Z,77.82
2023-01-31T00:55:44.171Z,77.82
2023-01-31T00:55:54.244Z,77.82
2023-01-31T00:56:04.285Z,77.82
2023-01-31T00:56:14.355Z,77.72
2023-01-31T00:56:24.412Z,77.72
2023-01-31T00:56:34.744Z,77.61
2023-01-31T00:56:44.748Z,77.61
2023-01-31T00:56:54.794Z,77.61
2023-01-31T00:57:04.847Z,77.61
2023-01-31T00:57:14.923Z,77.51
2023-01-31T00:57:25.004Z,77.51
2023-01-31T00:57:35.463Z,77.51
2023-01-31T00:57:45.287Z,77.51
2023-01-31T00:57:55.373Z,77.51
2023-01-31T00:58:05.442Z,77.40
2023-01-31T00:58:15.543Z,77.40
2023-01-31T00:58:25.615Z,77.40
2023-01-31T00:58:35.872Z,77.40
2023-01-31T00:58:45.802Z,77.51
2023-01-31T00:58:55.937Z,77.51
2023-01-31T00:59:06.024Z,77.51
2023-01-31T00:59:16.116Z,77.51
2023-01-31T00:59:26.173Z,77.51
2023-01-31T00:59:36.909Z,77.51
2023-01-31T00:59:46.405Z,77.61
2023-01-31T00:59:56.512Z,77.61
2023-01-31T01:00:06.575Z,77.72
2023-01-31T01:00:16.669Z,77.72
2023-01-31T01:00:26.895Z,77.72
2023-01-31T01:00:37.579Z,77.72
2023-01-31T01:00:47.037Z,77.72
2023-01-31T01:00:57.176Z,77.72
2023-01-31T01:01:07.325Z,77.61
2023-01-31T01:01:17.402Z,77.61
2023-01-31T01:01:27.603Z,77.61
2023-01-31T01:01:38.105Z,77.61
2023-01-31T01:01:47.738Z,77.61
2023-01-31T01:01:57.862Z,77.61
2023-01-31T01:02:07.972Z,77.51
2023-01-31T01:02:18.155Z,77.51
2023-01-31T01:02:28.242Z,77.51
2023-01-31T01:02:38.302Z,77.51
2023-01-31T01:02:48.438Z,77.40
2023-01-31T01:02:58.501Z,77.40
2023-01-31T01:03:08.582Z,77.30
2023-01-31T01:03:18.657Z,77.30
2023-01-31T01:03:28.713Z,77.30
2023-01-31T01:03:38.811Z,77.30
2023-01-31T01:03:48.903Z,77.30
2023-01-31T01:03:58.967Z,77.30
2023-01-31T01:04:09.048Z,77.30
2023-01-31T01:04:19.092Z,77.30
2023-01-31T01:04:29.163Z,77.40
2023-01-31T01:04:39.256Z,77.51
2023-01-31T01:04:49.301Z,77.51
2023-01-31T01:04:59.352Z,77.51
2023-01-31T01:05:09.401Z,77.51
2023-01-31T01:05:19.713Z,77.51
2023-01-31T01:05:29.552Z,77.40
2023-01-31T01:05:39.591Z,77.40
2023-01-31T01:05:49.691Z,77.40
2023-01-31T01:05:59.742Z,77.30
2023-01-31T01:06:09.829Z,77.30
2023-01-31T01:06:19.914Z,77.30
2023-01-31T01:06:29.975Z,77.30
2023-01-31T01:06:40.045Z,77.20
2023-01-31T01:06:50.102Z,77.20
2023-01-31T01:07:00.179Z,77.20
2023-01-31T01:07:10.251Z,77.30
2023-01-31T01:07:20.339Z,77.30
2023-01-31T01:07:30.413Z,77.40
2023-01-31T01:07:40.475Z,77.40
2023-01-31T01:07:50.546Z,77.40
2023-01-31T01:08:00.631Z,77.40
2023-01-31T01:08:10.692Z,77.40
2023-01-31T01:08:20.771Z,77.40
2023-01-31T01:08:30.852Z,77.40
2023-01-31T01:08:40.925Z,77.40
2023-01-31T01:08:51.025Z,77.40
2023-01-31T01:09:01.081Z,77.51
2023-01-31T01:09:11.153Z,77.61
2023-01-31T01:09:21.231Z,77.61
2023-01-31T01:09:31.323Z,77.61
2023-01-31T01:09:41.376Z,77.72
2023-01-31T01:09:51.449Z,77.72
2023-01-31T01:10:01.552Z,77.72
2023-01-31T01:10:11.610Z,77.72
2023-01-31T01:10:21.693Z,77.72
2023-01-31T01:10:32.233Z,77.61
2023-01-31T01:10:41.779Z,77.61
2023-01-31T01:10:51.859Z,77.61
2023-01-31T01:11:02.007Z,77.61
2023-01-31T01:11:12.071Z,77.61
2023-01-31T01:11:22.202Z,77.51
2023-01-31T01:11:32.280Z,77.51
2023-01-31T01:11:42.410Z,77.51
2023-01-31T01:11:52.489Z,77.51
2023-01-31T01:12:02.608Z,77.61
2023-01-31T01:12:12.677Z,77.61
2023-01-31T01:12:22.792Z,77.61
2023-01-31T01:12:33.129Z,77.61
2023-01-31T01:12:43.001Z,77.61
2023-01-31T01:12:53.083Z,77.61
2023-01-31T01:13:03.230Z,77.61
2023-01-31T01:13:13.311Z,77.61
2023-01-31T01:13:23.400Z,77.72
2023-01-31T01:13:33.471Z,77.61
2023-01-31T01:13:43.561Z,77.61
2023-01-31T01:13:53.659Z,77.51
2023-01-31T01:14:03.720Z,77.51
2023-01-31T01:14:13.783Z,77.40
2023-01-31T01:14:23.839Z,77.30
2023-01-31T01:14:34.639Z,77.20
2023-01-31T01:14:44.120Z,77.20
2023-01-31T01:14:54.200Z,77.20
2023-01-31T01:15:04.274Z,77.20
2023-01-31T01:15:14.370Z,77.20
2023-01-31T01:15:24.443Z,77.20
2023-01-31T01:15:34.635Z,77.20
2023-01-31T01:15:44.520Z,77.20
2023-01-31T01:15:54.593Z,77.20
2023-01-31T01:16:04.724Z,77.20
2023-01-31T01:16:14.878Z,77.20
2023-01-31T01:16:25.044Z,77.09
2023-01-31T01:16:35.537Z,77.09
2023-01-31T01:16:45.494Z,77.09
2023-01-31T01:16:55.411Z,77.09
2023-01-31T01:17:05.491Z,77.09
2023-01-31T01:17:15.549Z,77.06
2023-01-31T01:17:25.620Z,76.99
2023-01-31T01:17:36.135Z,76.95
2023-01-31T01:17:45.807Z,76.95
2023-01-31T01:17:55.875Z,76.95
2023-01-31T01:18:06.033Z,76.85
2023-01-31T01:18:16.107Z,76.85
2023-01-31T01:18:26.182Z,76.85
2023-01-31T01:18:36.328Z,76.85
2023-01-31T01:18:46.434Z,76.85
2023-01-31T01:18:56.530Z,76.95
2023-01-31T01:19:06.622Z,76.95
2023-01-31T01:19:16.698Z,76.95
2023-01-31T01:19:26.777Z,76.95
2023-01-31T01:19:36.871Z,76.95
2023-01-31T01:19:46.952Z,76.95
2023-01-31T01:19:57.059Z,77.06
2023-01-31T01:20:07.127Z,77.16
2023-01-31T01:20:17.219Z,77.26
2023-01-31T01:20:27.316Z,77.26
2023-01-31T01:20:37.410Z,77.26
2023-01-31T01:20:47.486Z,77.26
2023-01-31T01:20:57.562Z,77.26
2023-01-31T01:21:07.648Z,77.26
2023-01-31T01:21:17.731Z,77.26
2023-01-31T01:21:27.852Z,77.26
2023-01-31T01:21:37.971Z,77.16
2023-01-31T01:21:48.039Z,77.16
2023-01-31T01:21:58.119Z,77.06
2023-01-31T01:22:08.134Z,77.06
2023-01-31T01:22:18.209Z,77.06
2023-01-31T01:22:28.271Z,76.95
2023-01-31T01:22:38.287Z,76.95
2023-01-31T01:22:48.368Z,76.95
2023-01-31T01:22:58.427Z,76.95
2023-01-31T01:23:08.519Z,76.95
2023-01-31T01:23:18.581Z,77.06
2023-01-31T01:23:28.666Z,77.06
2023-01-31T01:23:38.790Z,77.16
2023-01-31T01:23:48.894Z,77.16
2023-01-31T01:23:58.977Z,77.16
2023-01-31T01:24:09.069Z,77.16
2023-01-31T01:24:19.170Z,77.26
2023-01-31T01:24:29.249Z,77.16
2023-01-31T01:24:39.308Z,77.06
2023-01-31T01:24:49.442Z,76.95
2023-01-31T01:24:59.511Z,76.85
2023-01-31T01:25:09.577Z,76.75
2023-01-31T01:25:19.926Z,76.64
2023-01-31T01:25:30.379Z,76.64
2023-01-31T01:25:39.969Z,76.64
2023-01-31T01:25:50.044Z,76.64
2023-01-31T01:26:00.093Z,76.64
2023-01-31T01:26:10.148Z,76.64
2023-01-31T01:26:20.256Z,76.64
2023-01-31T01:26:30.933Z,76.64
2023-01-31T01:26:40.462Z,76.64
2023-01-31T01:26:50.602Z,76.64
2023-01-31T01:27:00.713Z,76.75
2023-01-31T01:27:10.778Z,76.75
2023-01-31T01:27:20.928Z,76.64
2023-01-31T01:27:31.447Z,76.64
2023-01-31T01:27:41.042Z,76.54
2023-01-31T01:27:51.203Z,76.54
2023-01-31T01:28:01.270Z,76.43
2023-01-31T01:28:11.342Z,76.33
2023-01-31T01:28:21.407Z,76.33
2023-01-31T01:28:31.548Z,76.33
2023-01-31T01:28:41.640Z,76.33
2023-01-31T01:28:51.739Z,76.43
2023-01-31T01:29:01.811Z,76.43
2023-01-31T01:29:11.885Z,76.54
2023-01-31T01:29:22.008Z,76.54
2023-01-31T01:29:32.374Z,76.64
2023-01-31T01:29:42.102Z,76.64
2023-01-31T01:29:52.184Z,76.75
2023-01-31T01:30:02.277Z,76.75
2023-01-31T01:30:12.331Z,76.75
2023-01-31T01:30:22.399Z,76.64
2023-01-31T01:30:32.496Z,76.64
2023-01-31T01:30:42.607Z,76.64
2023-01-31T01:30:52.693Z,76.54
2023-01-31T01:31:02.778Z,76.54
2023-01-31T01:31:13.017Z,76.43
2023-01-31T01:31:23.060Z,76.43
2023-01-31T01:31:33.128Z,76.33
2023-01-31T01:31:43.205Z,76.33
2023-01-31T01:31:53.209Z,76.33
2023-01-31T01:32:03.235Z,76.33
2023-01-31T01:32:13.217Z,76.33
2023-01-31T01:32:23.324Z,76.33
2023-01-31T01:32:33.922Z,76.43
2023-01-31T01:32:43.477Z,76.43
2023-01-31T01:32:53.497Z,76.43
2023-01-31T01:33:03.568Z,76.43
2023-01-31T01:33:13.656Z,76.43
2023-01-31T01:33:23.718Z,76.33
2023-01-31T01:33:33.944Z,76.23
2023-01-31T01:33:43.854Z,76.23
2023-01-31T01:33:53.947Z,76.23
2023-01-31T01:34:04.034Z,76.23
2023-01-31T01:34:14.146Z,76.23
2023-01-31T01:34:24.216Z,76.23
2023-01-31T01:34:34.334Z,76.23
2023-01-31T01:34:44.425Z,76.23
2023-01-31T01:34:54.500Z,76.33
2023-01-31T01:35:04.585Z,76.33
2023-01-31T01:35:14.674Z,76.33
2023-01-31T01:35:24.727Z,76.43
2023-01-31T01:35:34.817Z,76.43
2023-01-31T01:35:44.902Z,76.33
2023-01-31T01:35:54.986Z,76.33
2023-01-31T01:36:05.071Z,76.33
2023-01-31T01:36:15.163Z,76.23
2023-01-31T01:36:25.246Z,76.23
2023-01-31T01:36:35.908Z,76.33
2023-01-31T01:36:47.874Z,76.33
2023-01-31T01:36:55.640Z,76.43
2023-01-31T01:37:05.716Z,76.43
2023-01-31T01:37:15.867Z,76.43
2023-01-31T01:37:25.960Z,76.43
2023-01-31T01:37:36.378Z,76.33
2023-01-31T01:37:46.097Z,76.33
2023-01-31T01:37:56.242Z,76.33
2023-01-31T01:38:06.306Z,76.33
2023-01-31T01:38:16.384Z,76.33
2023-01-31T01:38:26.449Z,76.33
2023-01-31T01:38:36.561Z,76.33
2023-01-31T01:38:46.616Z,76.23
2023-01-31T01:38:56.785Z,76.23
2023-01-31T01:39:06.868Z,76.23
2023-01-31T01:39:16.952Z,76.33
2023-01-31T01:39:27.004Z,76.33
2023-01-31T01:39:37.148Z,76.33
2023-01-31T01:39:47.226Z,76.43
2023-01-31T01:39:57.285Z,76.43
2023-01-31T01:40:07.353Z,76.54
2023-01-31T01:40:17.425Z,76.54
2023-01-31T01:40:27.506Z,76.54
2023-01-31T01:40:37.576Z,76.54
2023-01-31T01:40:47.675Z,76.54
2023-01-31T01:40:57.795Z,76.54
2023-01-31T01:41:07.873Z,76.43
2023-01-31T01:41:17.945Z,76.43
2023-01-31T01:41:28.610Z,76.43
2023-01-31T01:41:38.087Z,76.33
2023-01-31T01:41:48.172Z,76.43
2023-01-31T01:41:58.266Z,76.43
2023-01-31T01:42:08.349Z,76.43
2023-01-31T01:42:18.466Z,76.43
2023-01-31T01:42:28.682Z,76.43
2023-01-31T01:42:38.564Z,76.54
2023-01-31T01:42:48.632Z,76.43
2023-01-31T01:42:58.695Z,76.43
2023-01-31T01:43:08.775Z,76.33
2023-01-31T01:43:18.847Z,76.33
2023-01-31T01:43:29.507Z,76.33
2023-01-31T01:43:39.135Z,76.33
2023-01-31T01:43:49.236Z,76.33
2023-01-31T01:43:59.341Z,76.33
2023-01-31T01:44:09.425Z,76.43
2023-01-31T01:44:19.528Z,76.43
2023-01-31T01:44:29.604Z,76.43
2023-01-31T01:44:39.666Z,76.43
2023-01-31T01:44:49.749Z,76.54
2023-01-31T01:44:59.817Z,76.54
2023-01-31T01:45:09.944Z,76.54
2023-01-31T01:45:21.297Z,76.54
2023-01-31T01:45:30.693Z,76.43
2023-01-31T01:45:40.381Z,76.43
2023-01-31T01:45:50.497Z,76.33
2023-01-31T01:46:00.659Z,76.23
2023-01-31T01:46:10.760Z,76.23
2023-01-31T01:46:20.847Z,76.23
2023-01-31T01:46:31.584Z,76.23
2023-01-31T01:46:41.070Z,76.23
2023-01-31T01:46:51.065Z,76.23
2023-01-31T01:47:01.152Z,76.33
2023-01-31T01:47:11.203Z,76.33
2023-01-31T01:47:21.210Z,76.23
2023-01-31T01:47:31.543Z,76.12
2023-01-31T01:47:41.426Z,76.12
2023-01-31T01:47:51.496Z,76.12
2023-01-31T01:48:01.565Z,76.12
2023-01-31T01:48:11.634Z,76.12
2023-01-31T01:48:21.706Z,76.12
2023-01-31T01:48:31.775Z,76.23
2023-01-31T01:48:41.862Z,76.23
2023-01-31T01:48:51.965Z,76.33
2023-01-31T01:49:02.034Z,76.33
2023-01-31T01:49:12.106Z,76.33
2023-01-31T01:49:22.166Z,76.33
2023-01-31T01:49:32.360Z,76.33
2023-01-31T01:49:42.241Z,76.33
2023-01-31T01:49:52.314Z,76.33
2023-01-31T01:50:02.433Z,76.33
2023-01-31T01:50:12.573Z,76.43
2023-01-31T01:50:22.645Z,76.43
2023-01-31T01:50:32.722Z,76.43
2023-01-31T01:50:42.845Z,76.43
2023-01-31T01:50:52.996Z,76.43
2023-01-31T01:51:03.073Z,76.43
2023-01-31T01:51:13.206Z,76.43
2023-01-31T01:51:23.274Z,76.33
2023-01-31T01:51:33.373Z,76.33
2023-01-31T01:51:43.454Z,76.33
2023-01-31T01:51:53.535Z,76.33
2023-01-31T01:52:03.609Z,76.43
2023-01-31T01:52:13.664Z,76.43
2023-01-31T01:52:23.746Z,76.43
2023-01-31T01:52:33.814Z,76.43
2023-01-31T01:52:43.984Z,76.43
2023-01-31T01:52:54.063Z,76.43
2023-01-31T01:53:04.141Z,76.43
2023-01-31T01:53:14.203Z,76.43
2023-01-31T01:53:24.292Z,76.54
2023-01-31T01:53:34.353Z,76.54
2023-01-31T01:53:44.442Z,76.54
2023-01-31T01:53:54.534Z,76.54
2023-01-31T01:54:04.595Z,76.54
2023-01-31T01:54:14.654Z,76.54
2023-01-31T01:54:24.787Z,76.54
2023-01-31T01:54:34.876Z,76.54
2023-01-31T01:54:44.943Z,76.54
2023-01-31T01:54:55.010Z,76.54
2023-01-31T01:55:05.112Z,76.54
2023-01-31T01:55:15.192Z,76.54
2023-01-31T01:55:25.323Z,76.54
2023-01-31T01:55:35.383Z,76.54
2023-01-31T01:55:45.491Z,76.54
2023-01-31T01:55:55.585Z,76.43
2023-01-31T01:56:05.654Z,76.43
2023-01-31T01:56:15.722Z,76.43
2023-01-31T01:56:25.793Z,76.43
2023-01-31T01:56:36.084Z,76.43
2023-01-31T01:56:45.979Z,76.43
2023-01-31T01:56:56.052Z,76.54
2023-01-31T01:57:06.129Z,76.54
2023-01-31T01:57:16.198Z,76.54
2023-01-31T01:57:26.706Z,76.54
2023-01-31T01:57:36.364Z,76.54
2023-01-31T01:57:46.424Z,76.54
2023-01-31T01:57:56.487Z,76.54
2023-01-31T01:58:06.634Z,76.54
2023-01-31T01:58:16.705Z,76.54
2023-01-31T01:58:26.765Z,76.54
2023-01-31T01:58:36.840Z,76.54
2023-01-31T01:58:46.901Z,76.64
2023-01-31T01:58:56.992Z,76.64
2023-01-31T01:59:07.069Z,76.75
2023-01-31T01:59:17.143Z,76.85
2023-01-31T01:59:27.797Z,76.85
2023-01-31T01:59:37.331Z,76.85
2023-01-31T01:59:47.392Z,76.85
2023-01-31T01:59:57.464Z,76.85
2023-01-31T02:00:07.545Z,76.85
2023-01-31T02:00:17.623Z,76.85
2023-01-31T02:00:27.694Z,76.85
2023-01-31T02:00:37.770Z,76.85
2023-01-31T02:00:48.012Z,76.85
2023-01-31T02:00:58.008Z,76.85
2023-01-31T02:01:08.101Z,76.85
2023-01-31T02:01:18.254Z,76.85
2023-01-31T02:01:28.588Z,76.85
2023-01-31T02:01:38.464Z,76.85
2023-01-31T02:01:48.583Z,76.75
2023-01-31T02:01:58.698Z,76.75
2023-01-31T02:02:08.947Z,76.64
2023-01-31T02:02:19.066Z,76.64
2023-01-31T02:02:29.919Z,76.54
2023-01-31T02:02:39.175Z,76.54
2023-01-31T02:02:49.250Z,76.54
2023-01-31T02:02:59.321Z,76.54
2023-01-31T02:03:09.400Z,76.54
2023-01-31T02:03:19.466Z,76.64
2023-01-31T02:03:29.626Z,76.64
2023-01-31T02:03:39.557Z,76.64
2023-01-31T02:03:49.644Z,76.75
2023-01-31T02:03:59.734Z,76.75
2023-01-31T02:04:09.716Z,76.75
2023-01-31T02:04:19.783Z,76.75
2023-01-31T02:04:29.859Z,76.75
2023-01-31T02:04:39.941Z,76.64
2023-01-31T02:04:50.026Z,76.54
2023-01-31T02:05:00.119Z,76.54
2023-01-31T02:05:10.230Z,76.54
2023-01-31T02:05:20.781Z,76.64
2023-01-31T02:05:30.666Z,76.64
2023-01-31T02:05:40.391Z,76.64
2023-01-31T02:05:50.540Z,76.64
2023-01-31T02:06:00.631Z,76.64
2023-01-31T02:06:10.770Z,76.64
2023-01-31T02:06:20.848Z,76.75
2023-01-31T02:06:30.918Z,76.75
2023-01-31T02:06:40.997Z,76.75
2023-01-31T02:06:51.075Z,76.75
2023-01-31T02:07:01.135Z,76.75
2023-01-31T02:07:11.200Z,76.75
2023-01-31T02:07:21.330Z,76.75
2023-01-31T02:07:31.419Z,76.75
2023-01-31T02:07:41.933Z,76.75
2023-01-31T02:07:51.671Z,76.75
2023-01-31T02:08:01.754Z,76.75
2023-01-31T02:08:11.831Z,76.75
2023-01-31T02:08:21.911Z,76.85
2023-01-31T02:08:31.991Z,76.85
2023-01-31T02:08:42.063Z,76.95
2023-01-31T02:08:52.140Z,76.95
2023-01-31T02:09:02.241Z,76.95
2023-01-31T02:09:12.331Z,76.95
2023-01-31T02:09:22.392Z,76.95
2023-01-31T02:09:32.475Z,76.95
2023-01-31T02:09:42.549Z,76.95
2023-01-31T02:09:52.640Z,76.95
2023-01-31T02:10:02.731Z,76.95